createdAt,value
2019-05-22T00:04:18.358Z,5.17
2019-05-22T00:09:24.692Z,7.10
2019-05-22T00:14:29.526Z,6.08
2019-05-22T00:19:36.822Z,8.38
2019-05-22T00:24:44.394Z,5.47
2019-05-22T00:29:51.306Z,5.62
2019-05-22T00:34:56.906Z,7.20
2019-05-22T00:40:04.166Z,3.47
2019-05-22T00:45:13.041Z,5.85
2019-05-22T00:50:22.328Z,6.03
2019-05-22T00:55:33.968Z,6.25
2019-05-22T01:00:49.732Z,8.53
2019-05-22T01:05:55.628Z,7.25
2019-05-22T01:11:01.226Z,5.53
2019-05-22T01:16:07.573Z,7.33
2019-05-22T01:21:15.058Z,14.60
2019-05-22T01:26:21.574Z,8.30
2019-05-22T01:31:27.887Z,10.25
2019-05-22T01:36:35.230Z,7.60
2019-05-22T01:41:41.851Z,7.75
2019-05-22T01:46:46.417Z,6.62
2019-05-22T01:51:51.509Z,8.78
2019-05-22T01:56:57.787Z,7.40
2019-05-22T02:02:04.525Z,11.08
2019-05-22T02:07:10.029Z,6.35
2019-05-22T02:12:28.111Z,7.97
2019-05-22T02:17:35.761Z,6.70
2019-05-22T02:22:40.940Z,5.03
2019-05-22T02:27:47.541Z,6.03
2019-05-22T02:32:53.077Z,6.22
2019-05-22T02:37:58.862Z,11.30
2019-05-22T02:43:03.856Z,7.87
2019-05-22T02:48:09.563Z,8.33
2019-05-22T02:53:15.074Z,11.40
2019-05-22T02:58:21.250Z,8.38
2019-05-22T03:03:26.991Z,8.75
2019-05-22T03:08:54.671Z,9.13
2019-05-22T03:14:03.664Z,10.68
2019-05-22T03:19:10.622Z,13.05
2019-05-22T03:24:16.215Z,10.40
2019-05-22T03:29:24.141Z,12.07
2019-05-22T03:34:29.160Z,19.27
2019-05-22T03:39:34.907Z,14.40
2019-05-22T03:44:41.049Z,14.95
2019-05-22T03:49:46.779Z,14.30
2019-05-22T03:54:52.524Z,12.68
2019-05-22T03:59:57.882Z,7.20
2019-05-22T04:05:03.270Z,13.08
2019-05-22T04:10:10.479Z,8.83
2019-05-22T04:15:15.822Z,11.57
2019-05-22T04:20:22.015Z,19.65
2019-05-22T04:25:26.956Z,11.57
2019-05-22T04:30:32.394Z,12.05
2019-05-22T04:35:40.355Z,10.00
2019-05-22T04:40:48.954Z,16.32
2019-05-22T04:45:54.198Z,13.50
2019-05-22T04:51:02.240Z,15.10
2019-05-22T04:56:07.347Z,10.23
2019-05-22T05:01:12.175Z,9.28
2019-05-22T05:06:18.359Z,14.90
2019-05-22T05:11:23.003Z,13.85
2019-05-22T05:16:27.680Z,15.30
2019-05-22T05:21:32.489Z,11.90
2019-05-22T05:26:37.694Z,9.60
2019-05-22T05:31:42.457Z,10.32
2019-05-22T05:36:47.753Z,9.68
2019-05-22T05:41:53.001Z,8.05
2019-05-22T05:46:57.829Z,10.15
2019-05-22T05:52:03.897Z,10.40
2019-05-22T05:57:38.665Z,8.45
2019-05-22T06:02:56.059Z,8.63
2019-05-22T06:07:49.940Z,11.48
2019-05-22T06:12:54.725Z,14.10
2019-05-22T06:18:28.076Z,15.05
2019-05-22T06:23:42.472Z,9.05
2019-05-22T06:28:47.994Z,13.25
2019-05-22T06:33:52.676Z,12.98
2019-05-22T06:39:00.941Z,9.20
2019-05-22T06:44:36.923Z,12.03
2019-05-22T06:49:43.972Z,13.95
2019-05-22T06:54:49.017Z,9.48
2019-05-22T07:00:11.301Z,11.45
2019-05-22T07:05:00.632Z,14.03
2019-05-22T07:10:06.981Z,7.67
2019-05-22T07:15:23.189Z,9.63
2019-05-22T07:20:31.113Z,6.65
2019-05-22T07:25:37.581Z,3.62
2019-05-22T07:30:42.347Z,3.92
2019-05-22T07:36:07.745Z,14.73
2019-05-22T07:40:54.089Z,5.33
2019-05-22T07:45:58.978Z,6.75
2019-05-22T07:51:04.050Z,4.25
2019-05-22T07:56:10.306Z,14.85
2019-05-22T08:01:18.201Z,13.25
2019-05-22T08:06:23.083Z,13.58
2019-05-22T08:11:28.032Z,10.13
2019-05-22T08:16:33.842Z,8.30
2019-05-22T08:21:39.173Z,7.42
2019-05-22T08:26:53.811Z,6.25
2019-05-22T08:31:50.899Z,6.62
2019-05-22T08:36:55.667Z,7.67
2019-05-22T08:42:02.127Z,6.72
2019-05-22T08:47:08.354Z,5.22
2019-05-22T08:52:22.905Z,3.10
2019-05-22T08:57:21.088Z,4.17
2019-05-22T09:02:25.982Z,5.90
2019-05-22T09:07:31.719Z,5.40
2019-05-22T09:12:36.625Z,6.22
2019-05-22T09:17:41.177Z,4.53
2019-05-22T09:22:46.711Z,4.60
2019-05-22T09:27:52.101Z,2.92
2019-05-22T09:32:58.214Z,4.20
2019-05-22T09:38:02.966Z,4.28
2019-05-22T09:43:07.869Z,2.20
2019-05-22T09:48:13.028Z,6.10
2019-05-22T09:53:18.127Z,3.27
2019-05-22T09:58:23.282Z,4.05
2019-05-22T10:03:28.273Z,3.30
2019-05-22T10:08:33.673Z,3.90
2019-05-22T10:13:38.353Z,4.00
2019-05-22T10:18:42.978Z,3.15
2019-05-22T10:23:47.880Z,3.87
2019-05-22T10:28:53.237Z,4.28
2019-05-22T10:33:57.937Z,2.15
2019-05-22T10:39:03.584Z,3.77
2019-05-22T10:44:08.587Z,4.50
2019-05-22T10:49:13.660Z,2.90
2019-05-22T10:54:18.367Z,1.70
2019-05-22T10:59:23.511Z,2.60
2019-05-22T11:04:29.760Z,3.95
2019-05-22T11:09:35.673Z,6.00
2019-05-22T11:14:40.632Z,2.12
2019-05-22T11:19:45.423Z,1.98
2019-05-22T11:24:50.158Z,1.90
2019-05-22T11:29:54.915Z,2.80
2019-05-22T11:34:59.586Z,1.05
2019-05-22T11:40:08.859Z,2.12
2019-05-22T11:45:16.325Z,4.10
2019-05-22T11:50:23.714Z,2.55
2019-05-22T11:55:44.292Z,1.98
2019-05-22T12:00:35.991Z,1.85
2019-05-22T12:05:40.774Z,2.87
2019-05-22T12:10:45.843Z,4.53
2019-05-22T12:15:50.673Z,3.60
2019-05-22T12:20:57.249Z,1.22
2019-05-22T12:26:01.880Z,2.85
2019-05-22T12:31:07.427Z,1.52
2019-05-22T12:36:14.162Z,6.15
2019-05-22T12:41:20.976Z,2.92
2019-05-22T12:46:27.262Z,4.08
2019-05-22T12:51:32.991Z,2.90
2019-05-22T12:56:37.910Z,0.80
2019-05-22T13:01:46.655Z,7.22
2019-05-22T13:06:52.235Z,2.77
2019-05-22T13:11:59.410Z,8.78
2019-05-22T13:17:06.361Z,2.25
2019-05-22T13:22:16.540Z,1.17
2019-05-22T13:27:22.761Z,1.05
2019-05-22T13:32:29.256Z,2.90
2019-05-22T13:37:34.277Z,1.62
2019-05-22T13:42:40.379Z,6.17
2019-05-22T13:47:45.036Z,1.30
2019-05-22T13:52:50.281Z,4.65
2019-05-22T13:57:55.440Z,1.47
2019-05-22T14:03:00.444Z,2.98
2019-05-22T14:08:08.194Z,5.15
2019-05-22T14:13:14.575Z,3.15
2019-05-22T14:18:19.613Z,1.70
2019-05-22T14:23:24.341Z,1.92
2019-05-22T14:28:30.727Z,1.98
2019-05-22T14:33:39.777Z,1.85
2019-05-22T14:38:43.215Z,2.87
2019-05-22T14:43:48.003Z,2.55
2019-05-22T14:48:52.735Z,1.80
2019-05-22T14:53:58.664Z,7.15
2019-05-22T14:59:04.794Z,3.65
2019-05-22T15:04:09.535Z,3.02
2019-05-22T15:09:14.298Z,3.30
2019-05-22T15:14:18.945Z,1.67
2019-05-22T15:19:24.097Z,3.47
2019-05-22T15:24:29.688Z,3.55
2019-05-22T15:29:34.328Z,3.05
2019-05-22T15:34:39.710Z,4.70
2019-05-22T15:39:45.110Z,4.65
2019-05-22T15:44:51.438Z,2.85
2019-05-22T15:49:56.668Z,2.70
2019-05-22T15:55:03.136Z,1.50
2019-05-22T16:00:10.502Z,2.00
2019-05-22T16:05:18.410Z,6.78
2019-05-22T16:10:23.958Z,18.70
2019-05-22T16:15:30.630Z,41.58
2019-05-22T16:20:37.414Z,4.72
2019-05-22T16:25:42.901Z,3.72
2019-05-22T16:30:47.999Z,4.55
2019-05-22T16:35:53.433Z,6.97
2019-05-22T16:40:58.448Z,3.45
2019-05-22T16:46:03.741Z,5.97
2019-05-22T16:51:09.947Z,7.97
2019-05-22T16:56:14.961Z,5.62
2019-05-22T17:01:21.796Z,4.62
2019-05-22T17:06:27.119Z,6.85
2019-05-22T17:11:33.354Z,5.60
2019-05-22T17:16:39.845Z,5.30
2019-05-22T17:21:46.073Z,8.75
2019-05-22T17:26:52.613Z,4.15
2019-05-22T17:31:58.402Z,5.80
2019-05-22T17:37:09.713Z,11.43
2019-05-22T17:42:20.852Z,9.43
2019-05-22T17:47:28.081Z,27.42
2019-05-22T17:52:32.798Z,34.80
2019-05-22T17:57:37.706Z,24.82
2019-05-22T18:02:43.947Z,23.52
2019-05-22T18:07:48.952Z,16.20
2019-05-22T18:12:54.003Z,22.93
2019-05-22T18:17:58.627Z,17.32
2019-05-22T18:23:04.209Z,16.10
2019-05-22T18:28:10.442Z,6.17
2019-05-22T18:33:16.279Z,1.60
2019-05-22T18:38:20.820Z,5.05
2019-05-22T18:43:25.362Z,5.97
2019-05-22T18:48:33.034Z,8.43
2019-05-22T18:53:36.453Z,4.58
2019-05-22T18:58:42.057Z,6.22
2019-05-22T19:03:46.653Z,4.42
2019-05-22T19:08:51.413Z,4.35
2019-05-22T19:13:56.421Z,5.15
2019-05-22T19:19:01.022Z,6.60
2019-05-22T19:24:05.913Z,7.35
2019-05-22T19:29:10.627Z,12.03
2019-05-22T19:34:17.086Z,10.00
2019-05-22T19:39:23.715Z,8.08
2019-05-22T19:44:29.112Z,4.50
2019-05-22T19:49:34.922Z,7.50
2019-05-22T19:54:45.667Z,4.90
2019-05-22T19:59:52.340Z,3.87
2019-05-22T20:05:00.408Z,7.90
2019-05-22T20:10:10.138Z,5.92
2019-05-22T20:15:16.104Z,7.00
2019-05-22T20:20:22.396Z,8.68
2019-05-22T20:25:28.359Z,14.85
2019-05-22T20:30:33.193Z,8.90
2019-05-22T20:35:38.155Z,8.35
2019-05-22T20:40:44.303Z,8.33
2019-05-22T20:45:51.171Z,12.68
2019-05-22T20:50:59.878Z,12.82
2019-05-22T20:56:05.423Z,10.35
2019-05-22T21:01:11.301Z,10.40
2019-05-22T21:06:17.252Z,10.38
2019-05-22T21:11:25.412Z,12.05
2019-05-22T21:16:30.759Z,9.33
2019-05-22T21:21:36.593Z,12.03
2019-05-22T21:26:42.736Z,7.70
2019-05-22T21:31:48.332Z,6.80
2019-05-22T21:36:53.973Z,4.53
2019-05-22T21:42:00.487Z,6.55
2019-05-22T21:47:06.747Z,5.20
2019-05-22T21:52:13.275Z,3.77
2019-05-22T21:57:18.574Z,4.12
2019-05-22T22:02:27.779Z,2.70
2019-05-22T22:07:35.224Z,3.30
2019-05-22T22:12:39.878Z,5.58
2019-05-22T22:17:46.370Z,4.75
2019-05-22T22:22:52.528Z,6.72
2019-05-22T22:27:58.328Z,7.00
2019-05-22T22:33:10.200Z,4.65
2019-05-22T22:38:15.989Z,4.30
2019-05-22T22:43:23.092Z,5.45
2019-05-22T22:48:32.390Z,4.47
2019-05-22T22:53:36.914Z,4.20
2019-05-22T22:58:42.649Z,2.70
2019-05-22T23:03:50.956Z,4.12
2019-05-22T23:08:55.961Z,6.22
2019-05-22T23:14:03.394Z,10.18
2019-05-22T23:19:11.330Z,12.80
2019-05-22T23:24:19.191Z,7.90
2019-05-22T23:29:25.098Z,4.65
2019-05-22T23:34:30.855Z,5.37
2019-05-22T23:39:36.365Z,4.22
2019-05-22T23:44:42.040Z,6.83
2019-05-22T23:49:46.965Z,6.45
2019-05-22T23:54:52.466Z,5.62
2019-05-22T23:59:58.978Z,6.03
